< < Back
Terminal Aerodrome Forecast


Current Version              Previous Versions:   1  2  3  4  5  6  7  8  9  

Terminal Aerodrome Forecast

214
FTUS44 KMRX 300522
TAFTYS
TAF
KTYS 300522Z 3006/3106 30013G19KT P6SM -RA BKN025 OVC060
     FM301200 32010KT P6SM SCT035 BKN080
     FM301800 34010KT P6SM SCT050 BKN150
     FM310000 02004KT P6SM SCT150=

Latest METAR

912
SAUS80 KWBC 301700 RRA
MTRTYS
METAR KTYS 301653Z 34008KT 10SM FEW038 BKN046 04/M06 A3039 RMK AO2
SLP294 T00391056


USA.gov is the U.S. government's official web portal to all federal, state and local government web resources and services.